Terminal Aerodrome Forecast
Issued by NWS Upton, NY

Home | Current Version | Previous Version | Text Only | Print | Product List | Glossary On
Versions: 1 2 3 4 5 6 7 8 9 10 11 12 13 14 15 16 17 18 19 20 21 22 23 24 25 26 27 28
000
FTUS41 KOKX 310224 AAA
TAFJFK
TAF AMD
KJFK 310224Z 3102/0106 21006KT P6SM FEW010 BKN090
      TEMPO 3103/3107 BKN010
     FM310800 32006KT P6SM FEW090 SCT250
     FM311600 24012G18KT P6SM FEW060 SCT250
     FM312300 26009KT P6SM FEW250=

USA.gov is the U.S. government's official web portal to all federal, state and local government web resources and services.